Time,TemperatureF,DewpointF,PressureIn,WindDirection,WindDirectionDegrees,WindSpeedMPH,WindSpeedGustMPH,Humidity,HourlyPrecipIn,Conditions,Clouds,dailyrainin,SoftwareType,DateUTC
2013-10-05 00:00:00,64.7,61.5,30.08,North,359,0.0,229.5,89,0.01,,,0.00,VWS V14.01,2013-10-05 04:00:00,
2013-10-05 00:01:00,65.8,61.7,30.07,North,359,0.0,229.5,87,0.01,,,0.00,VWS V14.01,2013-10-05 04:01:00,
2013-10-05 00:02:00,65.8,61.8,30.07,North,359,0.0,229.5,87,0.01,,,0.00,VWS V14.01,2013-10-05 04:02:00,
2013-10-05 00:03:00,65.7,61.7,30.07,North,359,0.0,229.5,87,0.01,,,0.00,VWS V14.01,2013-10-05 04:03:00,
2013-10-05 00:04:00,65.7,61.7,30.07,North,359,0.0,229.5,87,0.01,,,0.00,VWS V14.01,2013-10-05 04:04:00,
2013-10-05 00:05:00,64.9,61.6,30.08,North,359,0.0,229.5,89,0.01,,,0.00,VWS V14.01,2013-10-05 04:05:00,
2013-10-05 00:06:00,64.8,61.5,30.08,North,359,0.0,229.5,89,0.01,,,0.00,VWS V14.01,2013-10-05 04:06:00,
2013-10-05 00:07:00,65.7,61.7,30.07,North,359,0.0,229.5,87,0.01,,,0.00,VWS V14.01,2013-10-05 04:07:00,
2013-10-05 00:08:00,64.9,61.6,30.08,North,359,0.0,229.5,89,0.01,,,0.00,VWS V14.01,2013-10-05 04:08:00,
2013-10-05 00:09:00,64.9,61.6,30.08,North,359,0.0,229.5,89,0.01,,,0.00,VWS V14.01,2013-10-05 04:09:00,
2013-10-05 00:10:00,65.5,61.6,30.07,North,359,0.0,229.5,87,0.01,,,0.00,VWS V14.01,2013-10-05 04:10:00,
2013-10-05 00:11:00,65.0,61.7,30.08,North,359,0.0,229.5,89,0.01,,,0.00,VWS V14.01,2013-10-05 04:11:00,
2013-10-05 00:12:00,64.9,61.6,30.07,North,359,0.0,229.5,89,0.01,,,0.00,VWS V14.01,2013-10-05 04:12:00,
2013-10-05 00:13:00,64.9,61.6,30.07,North,359,0.0,229.5,89,0.01,,,0.00,VWS V14.01,2013-10-05 04:13:00,
2013-10-05 00:14:00,65.0,61.7,30.08,North,359,0.0,229.5,89,0.01,,,0.00,VWS V14.01,2013-10-05 04:14:00,
2013-10-05 00:15:00,65.4,61.5,30.07,North,359,0.0,229.5,87,0.01,,,0.00,VWS V14.01,2013-10-05 04:15:00,
2013-10-05 00:16:00,64.9,61.7,30.08,North,359,0.0,229.5,89,0.01,,,0.00,VWS V14.01,2013-10-05 04:16:00,
2013-10-05 00:17:00,64.9,61.7,30.08,North,359,0.0,229.5,90,0.01,,,0.00,VWS V14.01,2013-10-05 04:17:00,
2013-10-05 00:18:00,64.9,61.8,30.08,North,359,0.0,229.5,90,0.01,,,0.00,VWS V14.01,2013-10-05 04:18:00,
2013-10-05 00:19:00,64.9,61.8,30.08,North,359,0.0,229.5,90,0.01,,,0.00,VWS V14.01,2013-10-05 04:19:00,
2013-10-05 00:21:00,65.2,61.4,30.07,North,359,0.0,229.5,87,0.01,,,0.00,VWS V14.01,2013-10-05 04:21:00,
2013-10-05 00:22:00,64.9,61.7,30.08,North,359,0.0,229.5,90,0.01,,,0.00,VWS V14.01,2013-10-05 04:22:00,
2013-10-05 00:23:00,64.9,61.8,30.08,North,359,0.0,229.5,90,0.01,,,0.00,VWS V14.01,2013-10-05 04:23:00,
2013-10-05 00:24:00,64.9,61.7,30.08,North,359,0.0,229.5,90,0.01,,,0.00,VWS V14.01,2013-10-05 04:24:00,
2013-10-05 00:26:00,65.1,61.4,30.07,North,359,0.0,229.5,88,0.01,,,0.00,VWS V14.01,2013-10-05 04:26:00,
2013-10-05 00:27:00,64.9,61.8,30.08,North,359,0.0,229.5,90,0.01,,,0.00,VWS V14.01,2013-10-05 04:27:00,
2013-10-05 00:28:00,65.0,61.9,30.08,North,359,0.0,229.5,90,0.01,,,0.00,VWS V14.01,2013-10-05 04:28:00,
2013-10-05 00:29:00,64.9,61.8,30.08,North,359,0.0,229.5,90,0.01,,,0.00,VWS V14.01,2013-10-05 04:29:00,
2013-10-05 00:30:00,64.9,61.7,30.08,North,359,0.0,229.5,90,0.01,,,0.00,VWS V14.01,2013-10-05 04:30:00,
2013-10-05 00:31:00,64.9,61.4,30.07,North,359,0.0,229.5,88,0.01,,,0.00,VWS V14.01,2013-10-05 04:31:00,
2013-10-05 00:33:00,65.0,61.8,30.08,North,359,0.0,229.5,89,0.01,,,0.00,VWS V14.01,2013-10-05 04:33:00,
2013-10-05 00:34:00,65.0,61.8,30.08,North,359,0.0,229.5,89,0.01,,,0.00,VWS V14.01,2013-10-05 04:34:00,
2013-10-05 00:35:00,65.0,61.8,30.08,North,359,0.0,229.5,89,0.01,,,0.00,VWS V14.01,2013-10-05 04:35:00,
2013-10-05 00:36:00,64.8,61.3,30.07,North,359,0.0,229.5,88,0.01,,,0.00,VWS V14.01,2013-10-05 04:36:00,
2013-10-05 00:38:00,65.0,61.8,30.08,North,359,0.0,229.5,89,0.01,,,0.00,VWS V14.01,2013-10-05 04:38:00,
2013-10-05 00:39:00,65.0,61.8,30.08,North,359,0.0,229.5,89,0.01,,,0.00,VWS V14.01,2013-10-05 04:39:00,
2013-10-05 00:40:00,65.0,61.8,30.08,North,359,0.0,229.5,89,0.01,,,0.00,VWS V14.01,2013-10-05 04:40:00,
2013-10-05 00:41:00,64.8,61.3,30.07,North,359,0.0,229.5,88,0.01,,,0.00,VWS V14.01,2013-10-05 04:41:00,
2013-10-05 00:42:00,65.0,61.8,30.09,North,359,0.0,229.5,89,0.01,,,0.00,VWS V14.01,2013-10-05 04:42:00,
2013-10-05 00:43:00,65.1,61.9,30.09,North,359,0.0,229.5,89,0.01,,,0.00,VWS V14.01,2013-10-05 04:43:00,
2013-10-05 00:44:00,65.1,61.8,30.09,North,359,0.0,229.5,89,0.01,,,0.00,VWS V14.01,2013-10-05 04:44:00,
2013-10-05 00:45:00,65.1,61.8,30.08,North,359,0.0,229.5,89,0.01,,,0.00,VWS V14.01,2013-10-05 04:45:00,
2013-10-05 00:46:00,65.1,61.8,30.08,North,359,0.0,229.5,89,0.01,,,0.00,VWS V14.01,2013-10-05 04:46:00,
2013-10-05 00:47:00,64.6,61.3,30.08,North,359,0.0,229.5,89,0.01,,,0.00,VWS V14.01,2013-10-05 04:47:00,
2013-10-05 00:48:00,65.1,61.8,30.08,North,359,0.0,229.5,89,0.01,,,0.00,VWS V14.01,2013-10-05 04:48:00,
2013-10-05 00:49:00,65.2,61.8,30.08,North,359,0.0,229.5,89,0.01,,,0.00,VWS V14.01,2013-10-05 04:49:00,
2013-10-05 00:51:00,65.2,61.8,30.08,North,359,0.0,229.5,89,0.01,,,0.00,VWS V14.01,2013-10-05 04:51:00,
2013-10-05 00:52:00,64.6,61.4,30.08,North,359,0.0,229.5,89,0.01,,,0.00,VWS V14.01,2013-10-05 04:52:00,
2013-10-05 00:53:00,65.2,61.8,30.08,North,359,0.0,229.5,89,0.01,,,0.00,VWS V14.01,2013-10-05 04:53:00,
2013-10-05 00:54:00,65.2,61.8,30.08,North,359,0.0,229.5,89,0.01,,,0.00,VWS V14.01,2013-10-05 04:54:00,
2013-10-05 00:55:00,65.3,62.0,30.08,North,359,0.0,229.5,89,0.01,,,0.00,VWS V14.01,2013-10-05 04:55:00,
2013-10-05 00:56:00,65.2,61.8,30.08,North,359,0.0,229.5,89,0.01,,,0.00,VWS V14.01,2013-10-05 04:56:00,
2013-10-05 00:57:00,65.2,61.8,30.08,North,359,0.0,229.5,89,0.01,,,0.00,VWS V14.01,2013-10-05 04:57:00,
2013-10-05 00:58:00,65.2,61.8,30.08,North,359,0.0,229.5,89,0.01,,,0.00,VWS V14.01,2013-10-05 04:58:00,
2013-10-05 00:59:00,65.3,61.9,30.08,North,359,0.0,229.5,89,0.01,,,0.00,VWS V14.01,2013-10-05 04:59:00,
2013-10-05 01:00:00,65.2,61.8,30.08,North,359,0.0,229.5,89,0.01,,,0.00,VWS V14.01,2013-10-05 05:00:00,
2013-10-05 01:01:00,65.2,61.8,30.08,North,359,0.0,229.5,89,0.01,,,0.00,VWS V14.01,2013-10-05 05:01:00,
2013-10-05 01:02:00,65.3,61.8,30.08,North,359,0.0,229.5,89,0.01,,,0.00,VWS V14.01,2013-10-05 05:02:00,
2013-10-05 01:04:00,65.3,61.9,30.08,North,359,0.0,229.5,89,0.01,,,0.00,VWS V14.01,2013-10-05 05:04:00,
2013-10-05 01:05:00,65.2,61.8,30.08,North,359,0.0,229.5,89,0.01,,,0.00,VWS V14.01,2013-10-05 05:05:00,
2013-10-05 01:06:00,65.2,61.8,30.08,North,359,0.0,229.5,89,0.01,,,0.00,VWS V14.01,2013-10-05 05:06:00,
2013-10-05 01:07:00,65.2,61.8,30.08,North,359,0.0,229.5,89,0.01,,,0.00,VWS V14.01,2013-10-05 05:07:00,
2013-10-05 01:08:00,65.2,61.8,30.08,North,359,0.0,229.5,89,0.01,,,0.00,VWS V14.01,2013-10-05 05:08:00,
2013-10-05 01:09:00,65.2,61.8,30.08,North,359,0.0,229.5,89,0.01,,,0.00,VWS V14.01,2013-10-05 05:09:00,
2013-10-05 01:10:00,65.2,61.8,30.08,North,359,0.0,229.5,89,0.01,,,0.00,VWS V14.01,2013-10-05 05:10:00,
2013-10-05 01:11:00,65.2,61.8,30.08,North,359,0.0,229.5,89,0.01,,,0.00,VWS V14.01,2013-10-05 05:11:00,
2013-10-05 01:12:00,65.2,61.7,30.08,North,359,0.0,229.5,88,0.01,,,0.00,VWS V14.01,2013-10-05 05:12:00,
2013-10-05 01:14:00,65.3,61.8,30.08,North,359,0.0,229.5,88,0.01,,,0.00,VWS V14.01,2013-10-05 05:14:00,
2013-10-05 01:15:00,65.2,61.8,30.08,North,359,0.0,229.5,89,0.01,,,0.00,VWS V14.01,2013-10-05 05:15:00,
2013-10-05 01:16:00,65.2,61.8,30.08,North,359,0.0,229.5,89,0.01,,,0.00,VWS V14.01,2013-10-05 05:16:00,
2013-10-05 01:18:00,65.2,61.8,30.08,North,359,0.0,229.5,89,0.01,,,0.00,VWS V14.01,2013-10-05 05:18:00,
2013-10-05 01:19:00,65.2,61.8,30.08,North,359,0.0,229.5,89,0.01,,,0.00,VWS V14.01,2013-10-05 05:19:00,
2013-10-05 01:20:00,65.2,61.8,30.08,North,359,0.0,229.5,89,0.01,,,0.00,VWS V14.01,2013-10-05 05:20:00,
2013-10-05 01:21:00,65.2,61.8,30.08,North,359,0.0,229.5,89,0.01,,,0.00,VWS V14.01,2013-10-05 05:21:00,
2013-10-05 01:22:00,65.2,61.8,30.08,North,359,0.0,229.5,89,0.01,,,0.00,VWS V14.01,2013-10-05 05:22:00,
2013-10-05 01:23:00,65.2,61.9,30.08,North,359,0.0,229.5,89,0.01,,,0.00,VWS V14.01,2013-10-05 05:23:00,
2013-10-05 01:24:00,65.1,61.8,30.08,North,359,0.0,229.5,89,0.01,,,0.00,VWS V14.01,2013-10-05 05:24:00,
2013-10-05 01:28:00,65.1,61.8,30.08,North,359,0.0,229.5,89,0.01,,,0.00,VWS V14.01,2013-10-05 05:28:00,
2013-10-05 01:30:00,65.1,61.8,30.08,North,359,0.0,229.5,89,0.01,,,0.00,VWS V14.01,2013-10-05 05:30:00,
2013-10-05 01:31:00,65.1,61.8,30.08,North,359,0.0,229.5,89,0.01,,,0.00,VWS V14.01,2013-10-05 05:31:00,
2013-10-05 01:33:00,65.1,61.8,30.08,North,359,0.0,229.5,89,0.01,,,0.00,VWS V14.01,2013-10-05 05:33:00,
2013-10-05 01:36:00,65.1,61.8,30.08,North,359,0.0,229.5,89,0.01,,,0.00,VWS V14.01,2013-10-05 05:36:00,
2013-10-05 01:37:00,65.1,61.8,30.08,North,359,0.0,229.5,89,0.01,,,0.00,VWS V14.01,2013-10-05 05:37:00,
2013-10-05 01:38:00,65.1,61.8,30.08,North,359,0.0,229.5,89,0.01,,,0.00,VWS V14.01,2013-10-05 05:38:00,
2013-10-05 01:39:00,65.1,61.7,30.08,North,359,0.0,229.5,89,0.01,,,0.00,VWS V14.01,2013-10-05 05:39:00,
2013-10-05 01:40:00,65.1,61.7,30.08,North,359,0.0,229.5,89,0.01,,,0.00,VWS V14.01,2013-10-05 05:40:00,
2013-10-05 01:41:00,65.1,61.7,30.08,North,359,0.0,229.5,89,0.01,,,0.00,VWS V14.01,2013-10-05 05:41:00,
2013-10-05 01:46:00,65.1,61.7,30.08,North,359,0.0,229.5,89,0.01,,,0.00,VWS V14.01,2013-10-05 05:46:00,
2013-10-05 01:47:00,65.2,61.8,30.08,North,359,0.0,229.5,89,0.01,,,0.00,VWS V14.01,2013-10-05 05:47:00,
2013-10-05 01:48:00,65.2,61.8,30.08,North,359,0.0,229.5,89,0.01,,,0.00,VWS V14.01,2013-10-05 05:48:00,
2013-10-05 01:49:00,65.2,61.8,30.08,North,359,0.0,229.5,89,0.01,,,0.00,VWS V14.01,2013-10-05 05:49:00,
2013-10-05 01:51:00,65.2,61.8,30.08,North,359,0.0,229.5,89,0.01,,,0.00,VWS V14.01,2013-10-05 05:51:00,
2013-10-05 01:52:00,65.2,61.8,30.08,North,359,0.0,229.5,89,0.01,,,0.00,VWS V14.01,2013-10-05 05:52:00,
2013-10-05 01:54:00,65.2,61.8,30.08,North,359,0.0,229.5,89,0.01,,,0.00,VWS V14.01,2013-10-05 05:54:00,
2013-10-05 01:58:00,65.2,61.7,30.08,North,359,0.0,229.5,88,0.01,,,0.00,VWS V14.01,2013-10-05 05:58:00,
2013-10-05 01:59:00,65.2,61.7,30.08,North,359,0.0,229.5,88,0.01,,,0.00,VWS V14.01,2013-10-05 05:59:00,
2013-10-05 02:00:00,65.2,61.7,30.08,North,359,0.0,229.5,88,0.01,,,0.00,VWS V14.01,2013-10-05 06:00:00,
2013-10-05 02:01:00,65.2,61.7,30.08,North,359,0.0,229.5,88,0.01,,,0.00,VWS V14.01,2013-10-05 06:01:00,
2013-10-05 02:05:00,65.3,61.8,30.08,North,359,0.0,229.5,89,0.01,,,0.00,VWS V14.01,2013-10-05 06:05:00,
2013-10-05 02:08:00,65.2,61.8,30.08,North,359,0.0,229.5,89,0.01,,,0.00,VWS V14.01,2013-10-05 06:08:00,
2013-10-05 02:09:00,65.2,61.8,30.07,North,359,0.0,229.5,89,0.01,,,0.00,VWS V14.01,2013-10-05 06:09:00,
2013-10-05 02:12:00,65.2,61.8,30.07,North,359,0.0,229.5,89,0.01,,,0.00,VWS V14.01,2013-10-05 06:12:00,
2013-10-05 02:14:00,65.2,61.8,30.07,North,359,0.0,229.5,89,0.01,,,0.00,VWS V14.01,2013-10-05 06:14:00,
2013-10-05 02:15:00,65.2,61.8,30.07,North,359,0.0,229.5,89,0.01,,,0.00,VWS V14.01,2013-10-05 06:15:00,
2013-10-05 02:16:00,65.2,61.8,30.07,North,359,0.0,229.5,89,0.01,,,0.00,VWS V14.01,2013-10-05 06:16:00,
2013-10-05 02:20:00,65.2,61.8,30.08,North,359,0.0,229.5,89,0.01,,,0.00,VWS V14.01,2013-10-05 06:20:00,
2013-10-05 02:21:00,65.2,61.8,30.08,North,359,0.0,229.5,89,0.01,,,0.00,VWS V14.01,2013-10-05 06:21:00,
2013-10-05 02:22:00,65.1,61.8,30.08,North,359,0.0,229.5,89,0.01,,,0.00,VWS V14.01,2013-10-05 06:22:00,
2013-10-05 02:23:00,65.2,61.9,30.08,North,359,0.0,229.5,89,0.01,,,0.00,VWS V14.01,2013-10-05 06:23:00,
2013-10-05 02:28:00,65.2,61.9,30.08,North,359,0.0,229.5,89,0.01,,,0.00,VWS V14.01,2013-10-05 06:28:00,
2013-10-05 02:29:00,65.1,61.8,30.08,North,359,0.0,229.5,89,0.01,,,0.00,VWS V14.01,2013-10-05 06:29:00,
2013-10-05 02:30:00,65.1,61.9,30.08,North,359,0.0,229.5,89,0.01,,,0.00,VWS V14.01,2013-10-05 06:30:00,
2013-10-05 02:31:00,65.1,61.9,30.08,North,359,0.0,229.5,90,0.01,,,0.00,VWS V14.01,2013-10-05 06:31:00,
2013-10-05 02:39:00,65.2,61.8,30.08,North,359,0.0,229.5,89,0.01,,,0.00,VWS V14.01,2013-10-05 06:39:00,
2013-10-05 02:41:00,65.1,62.0,30.08,North,359,0.0,229.5,90,0.01,,,0.00,VWS V14.01,2013-10-05 06:41:00,
2013-10-05 02:43:00,65.0,61.9,30.08,North,359,0.0,229.5,90,0.01,,,0.00,VWS V14.01,2013-10-05 06:43:00,
2013-10-05 02:45:00,65.1,62.0,30.08,North,359,0.0,229.5,90,0.01,,,0.00,VWS V14.01,2013-10-05 06:45:00,
2013-10-05 02:46:00,65.2,61.8,30.08,North,359,0.0,229.5,89,0.01,,,0.00,VWS V14.01,2013-10-05 06:46:00,
2013-10-05 02:48:00,65.1,61.9,30.08,North,359,0.0,229.5,90,0.01,,,0.00,VWS V14.01,2013-10-05 06:48:00,
2013-10-05 02:53:00,65.2,61.7,30.08,North,359,0.0,229.5,88,0.01,,,0.00,VWS V14.01,2013-10-05 06:53:00,
2013-10-05 02:59:00,65.2,61.7,30.08,North,359,0.0,229.5,88,0.01,,,0.00,VWS V14.01,2013-10-05 06:59:00,
2013-10-05 03:00:00,65.1,62.0,30.08,North,359,0.0,229.5,90,0.01,,,0.00,VWS V14.01,2013-10-05 07:00:00,
2013-10-05 03:03:00,65.1,62.0,30.08,North,359,0.0,229.5,90,0.01,,,0.00,VWS V14.01,2013-10-05 07:03:00,
2013-10-05 03:07:00,65.2,61.8,30.07,North,359,0.0,229.5,89,0.01,,,0.00,VWS V14.01,2013-10-05 07:07:00,
2013-10-05 03:09:00,65.0,62.0,30.08,North,359,0.0,229.5,90,0.01,,,0.00,VWS V14.01,2013-10-05 07:09:00,
2013-10-05 03:14:00,65.2,61.8,30.08,North,359,0.0,229.5,89,0.01,,,0.00,VWS V14.01,2013-10-05 07:14:00,
2013-10-05 03:21:00,65.1,61.8,30.08,North,359,0.0,229.5,89,0.01,,,0.00,VWS V14.01,2013-10-05 07:21:00,
2013-10-05 03:27:00,65.0,62.0,30.08,North,359,0.0,229.5,90,0.01,,,0.00,VWS V14.01,2013-10-05 07:27:00,
2013-10-05 03:29:00,65.1,61.9,30.08,North,359,0.0,229.5,90,0.01,,,0.00,VWS V14.01,2013-10-05 07:29:00,
2013-10-05 03:35:00,65.1,62.0,30.08,North,359,0.0,229.5,90,0.01,,,0.00,VWS V14.01,2013-10-05 07:35:00,
2013-10-05 03:40:00,65.1,62.0,30.08,North,359,0.0,229.5,90,0.01,,,0.00,VWS V14.01,2013-10-05 07:40:00,
2013-10-05 03:46:00,65.1,61.9,30.08,North,359,0.0,229.5,90,0.01,,,0.00,VWS V14.01,2013-10-05 07:46:00,
2013-10-05 03:51:00,65.1,61.9,30.08,North,359,0.0,229.5,89,0.01,,,0.00,VWS V14.01,2013-10-05 07:51:00,
2013-10-05 03:57:00,65.1,62.0,30.08,North,359,0.0,229.5,90,0.01,,,0.00,VWS V14.01,2013-10-05 07:57:00,
2013-10-05 04:03:00,65.0,61.9,30.08,North,359,0.0,229.5,90,0.01,,,0.00,VWS V14.01,2013-10-05 08:03:00,
2013-10-05 04:08:00,65.0,62.0,30.08,North,359,0.0,229.5,90,0.01,,,0.00,VWS V14.01,2013-10-05 08:08:00,
2013-10-05 04:14:00,65.0,62.0,30.08,North,359,0.0,229.5,90,0.01,,,0.00,VWS V14.01,2013-10-05 08:14:00,
2013-10-05 04:19:00,65.0,61.9,30.08,North,359,0.0,229.5,90,0.01,,,0.00,VWS V14.01,2013-10-05 08:19:00,
2013-10-05 04:25:00,65.0,62.0,30.08,North,359,0.0,229.5,90,0.01,,,0.00,VWS V14.01,2013-10-05 08:25:00,
2013-10-05 04:30:00,64.9,61.8,30.08,North,359,0.0,229.5,90,0.01,,,0.00,VWS V14.01,2013-10-05 08:30:00,
2013-10-05 04:36:00,64.9,61.9,30.08,North,359,0.0,229.5,90,0.01,,,0.00,VWS V14.01,2013-10-05 08:36:00,
2013-10-05 04:41:00,64.9,61.9,30.08,North,359,0.0,229.5,90,0.01,,,0.00,VWS V14.01,2013-10-05 08:41:00,
2013-10-05 04:47:00,64.9,61.9,30.08,North,359,0.0,229.5,90,0.01,,,0.00,VWS V14.01,2013-10-05 08:47:00,
2013-10-05 04:52:00,64.9,61.8,30.08,North,359,0.0,229.5,90,0.01,,,0.00,VWS V14.01,2013-10-05 08:52:00,
2013-10-05 04:57:00,64.9,61.9,30.09,North,359,0.0,229.5,90,0.01,,,0.00,VWS V14.01,2013-10-05 08:57:00,
2013-10-05 05:03:00,64.9,61.9,30.09,North,359,0.0,229.5,90,0.01,,,0.00,VWS V14.01,2013-10-05 09:03:00,
2013-10-05 05:08:00,64.9,61.9,30.08,North,359,0.0,229.5,90,0.01,,,0.00,VWS V14.01,2013-10-05 09:08:00,
2013-10-05 05:13:00,64.9,61.8,30.09,North,359,0.0,229.5,90,0.01,,,0.00,VWS V14.01,2013-10-05 09:13:00,
2013-10-05 05:19:00,64.8,61.7,30.09,North,359,0.0,229.5,90,0.01,,,0.00,VWS V14.01,2013-10-05 09:19:00,
2013-10-05 05:24:00,64.8,61.7,30.09,North,359,0.0,229.5,90,0.01,,,0.00,VWS V14.01,2013-10-05 09:24:00,
2013-10-05 05:29:00,64.8,61.9,30.09,North,359,0.0,229.5,90,0.01,,,0.00,VWS V14.01,2013-10-05 09:29:00,
2013-10-05 05:34:00,64.7,61.8,30.09,North,359,0.0,229.5,90,0.01,,,0.00,VWS V14.01,2013-10-05 09:34:00,
2013-10-05 05:39:00,64.7,61.8,30.09,North,359,0.0,229.5,90,0.01,,,0.00,VWS V14.01,2013-10-05 09:39:00,
2013-10-05 05:45:00,64.7,61.8,30.09,North,359,0.0,229.5,90,0.01,,,0.00,VWS V14.01,2013-10-05 09:45:00,
2013-10-05 05:50:00,64.6,61.7,30.10,North,359,0.0,229.5,90,0.01,,,0.00,VWS V14.01,2013-10-05 09:50:00,
2013-10-05 05:55:00,64.6,61.7,30.09,North,359,0.0,229.5,90,0.01,,,0.00,VWS V14.01,2013-10-05 09:55:00,
2013-10-05 06:00:00,64.7,61.7,30.09,North,359,0.0,229.5,90,0.01,,,0.00,VWS V14.01,2013-10-05 10:00:00,
2013-10-05 06:05:00,64.6,61.6,30.09,North,359,0.0,229.5,90,0.01,,,0.00,VWS V14.01,2013-10-05 10:05:00,
2013-10-05 06:11:00,64.7,61.8,30.09,North,359,0.0,229.5,90,0.01,,,0.00,VWS V14.01,2013-10-05 10:11:00,
2013-10-05 06:16:00,64.6,61.6,30.09,North,359,0.0,229.5,90,0.01,,,0.00,VWS V14.01,2013-10-05 10:16:00,
2013-10-05 06:21:00,64.6,61.7,30.09,North,359,0.0,229.5,90,0.01,,,0.00,VWS V14.01,2013-10-05 10:21:00,
2013-10-05 06:26:00,64.5,61.6,30.09,North,359,0.0,229.5,90,0.01,,,0.00,VWS V14.01,2013-10-05 10:26:00,
2013-10-05 06:31:00,64.5,61.6,30.10,North,359,0.0,229.5,90,0.01,,,0.00,VWS V14.01,2013-10-05 10:31:00,
2013-10-05 06:37:00,64.5,61.6,30.09,North,359,0.0,229.5,90,0.01,,,0.00,VWS V14.01,2013-10-05 10:37:00,
2013-10-05 06:42:00,64.5,61.6,30.10,North,359,0.0,229.5,90,0.01,,,0.00,VWS V14.01,2013-10-05 10:42:00,
2013-10-05 06:47:00,64.4,61.5,30.10,North,359,0.0,229.5,90,0.01,,,0.00,VWS V14.01,2013-10-05 10:47:00,
2013-10-05 06:52:00,64.4,61.5,30.10,North,359,0.0,229.5,90,0.01,,,0.00,VWS V14.01,2013-10-05 10:52:00,
2013-10-05 06:57:00,64.3,61.5,30.10,North,359,0.0,229.5,90,0.01,,,0.00,VWS V14.01,2013-10-05 10:57:00,
2013-10-05 07:03:00,64.2,61.4,30.10,North,359,0.0,229.5,91,0.01,,,0.00,VWS V14.01,2013-10-05 11:03:00,
2013-10-05 07:08:00,64.3,61.5,30.10,North,359,0.0,229.5,91,0.01,,,0.00,VWS V14.01,2013-10-05 11:08:00,
2013-10-05 07:13:00,64.3,61.5,30.10,North,359,0.0,229.5,90,0.01,,,0.00,VWS V14.01,2013-10-05 11:13:00,
2013-10-05 07:18:00,64.2,61.4,30.10,North,359,0.0,229.5,91,0.01,,,0.00,VWS V14.01,2013-10-05 11:18:00,
2013-10-05 07:23:00,64.1,61.4,30.10,North,359,0.0,229.5,91,0.01,,,0.00,VWS V14.01,2013-10-05 11:23:00,
2013-10-05 07:29:00,64.1,61.4,30.10,North,359,0.0,229.5,91,0.01,,,0.00,VWS V14.01,2013-10-05 11:29:00,
2013-10-05 07:34:00,64.1,61.5,30.10,North,359,0.0,229.5,91,0.01,,,0.00,VWS V14.01,2013-10-05 11:34:00,
2013-10-05 07:39:00,64.1,61.5,30.11,North,359,0.0,229.5,91,0.01,,,0.00,VWS V14.01,2013-10-05 11:39:00,
2013-10-05 07:44:00,64.2,61.6,30.11,North,359,0.0,229.5,91,0.01,,,0.00,VWS V14.01,2013-10-05 11:44:00,
2013-10-05 07:49:00,64.2,61.6,30.11,North,359,0.0,229.5,91,0.01,,,0.00,VWS V14.01,2013-10-05 11:49:00,
2013-10-05 07:55:00,64.3,61.7,30.11,North,359,0.0,229.5,91,0.01,,,0.00,VWS V14.01,2013-10-05 11:55:00,
2013-10-05 08:00:00,64.2,61.7,30.12,North,359,0.0,229.5,92,0.01,,,0.00,VWS V14.01,2013-10-05 12:00:00,
2013-10-05 08:05:00,64.2,61.7,30.12,North,359,0.0,229.5,92,0.01,,,0.00,VWS V14.01,2013-10-05 12:05:00,
2013-10-05 08:10:00,64.4,61.9,30.11,North,359,0.0,229.5,92,0.01,,,0.00,VWS V14.01,2013-10-05 12:10:00,
2013-10-05 08:15:00,64.4,62.0,30.11,North,359,0.0,229.5,92,0.01,,,0.00,VWS V14.01,2013-10-05 12:15:00,
2013-10-05 08:21:00,64.5,62.1,30.12,North,359,0.0,229.5,92,0.01,,,0.00,VWS V14.01,2013-10-05 12:21:00,
2013-10-05 08:26:00,64.7,62.3,30.12,North,359,0.0,229.5,92,0.01,,,0.00,VWS V14.01,2013-10-05 12:26:00,
2013-10-05 08:31:00,64.8,62.4,30.12,North,359,0.0,229.5,92,0.01,,,0.00,VWS V14.01,2013-10-05 12:31:00,
2013-10-05 08:36:00,64.9,62.4,30.12,North,359,0.0,229.5,92,0.01,,,0.00,VWS V14.01,2013-10-05 12:36:00,
2013-10-05 08:41:00,65.0,62.5,30.12,North,359,0.0,229.5,92,0.01,,,0.00,VWS V14.01,2013-10-05 12:41:00,
2013-10-05 08:47:00,65.1,62.5,30.12,North,359,0.0,229.5,91,0.01,,,0.00,VWS V14.01,2013-10-05 12:47:00,
2013-10-05 08:52:00,65.2,62.6,30.12,North,359,0.0,229.5,91,0.01,,,0.00,VWS V14.01,2013-10-05 12:52:00,
2013-10-05 08:57:00,65.2,62.6,30.12,North,359,0.0,229.5,91,0.01,,,0.00,VWS V14.01,2013-10-05 12:57:00,
2013-10-05 09:02:00,65.3,62.7,30.12,North,359,0.0,229.5,91,0.01,,,0.00,VWS V14.01,2013-10-05 13:02:00,
2013-10-05 09:07:00,65.4,62.8,30.12,North,359,0.0,229.5,91,0.01,,,0.00,VWS V14.01,2013-10-05 13:07:00,
2013-10-05 09:12:00,65.6,62.9,30.13,North,359,0.0,229.5,91,0.01,,,0.00,VWS V14.01,2013-10-05 13:12:00,
2013-10-05 09:18:00,65.7,62.9,30.13,North,359,0.0,229.5,91,0.01,,,0.00,VWS V14.01,2013-10-05 13:18:00,
2013-10-05 09:23:00,65.7,62.9,30.13,North,359,0.0,229.5,91,0.01,,,0.00,VWS V14.01,2013-10-05 13:23:00,
2013-10-05 09:28:00,65.9,63.1,30.13,North,359,0.0,229.5,91,0.01,,,0.00,VWS V14.01,2013-10-05 13:28:00,
2013-10-05 09:33:00,66.0,63.1,30.13,North,359,0.0,229.5,90,0.01,,,0.00,VWS V14.01,2013-10-05 13:33:00,
2013-10-05 09:38:00,66.2,63.2,30.13,North,359,0.0,229.5,90,0.01,,,0.00,VWS V14.01,2013-10-05 13:38:00,
2013-10-05 09:44:00,66.3,63.2,30.14,North,359,0.0,229.5,90,0.01,,,0.00,VWS V14.01,2013-10-05 13:44:00,
2013-10-05 09:49:00,66.3,63.2,30.13,North,359,0.0,229.5,90,0.01,,,0.00,VWS V14.01,2013-10-05 13:49:00,
2013-10-05 09:54:00,66.3,63.2,30.13,North,359,0.0,229.5,90,0.01,,,0.00,VWS V14.01,2013-10-05 13:54:00,
2013-10-05 09:59:00,66.3,63.2,30.13,North,359,0.0,229.5,90,0.01,,,0.00,VWS V14.01,2013-10-05 13:59:00,
2013-10-05 10:04:00,66.2,63.2,30.13,North,359,0.0,229.5,90,0.01,,,0.00,VWS V14.01,2013-10-05 14:04:00,
2013-10-05 10:10:00,66.3,63.3,30.14,North,359,0.0,229.5,90,0.01,,,0.00,VWS V14.01,2013-10-05 14:10:00,
2013-10-05 10:15:00,66.4,63.3,30.14,North,359,0.0,229.5,90,0.01,,,0.00,VWS V14.01,2013-10-05 14:15:00,
2013-10-05 10:20:00,66.5,63.3,30.14,North,359,0.0,229.5,90,0.01,,,0.00,VWS V14.01,2013-10-05 14:20:00,
2013-10-05 10:25:00,66.7,63.5,30.14,North,359,0.0,229.5,89,0.01,,,0.00,VWS V14.01,2013-10-05 14:25:00,
2013-10-05 10:30:00,66.8,63.5,30.14,North,359,0.0,229.5,89,0.01,,,0.00,VWS V14.01,2013-10-05 14:30:00,
2013-10-05 10:36:00,66.9,63.5,30.13,North,359,0.0,229.5,89,0.01,,,0.00,VWS V14.01,2013-10-05 14:36:00,
2013-10-05 10:41:00,67.0,63.6,30.13,North,359,0.0,229.5,89,0.01,,,0.00,VWS V14.01,2013-10-05 14:41:00,
2013-10-05 10:47:00,67.1,63.7,30.13,North,359,0.0,229.5,89,0.01,,,0.00,VWS V14.01,2013-10-05 14:47:00,
2013-10-05 10:52:00,67.4,63.9,30.13,North,359,0.0,229.5,88,0.01,,,0.00,VWS V14.01,2013-10-05 14:52:00,
2013-10-05 10:58:00,67.7,64.0,30.13,North,359,0.0,229.5,88,0.01,,,0.00,VWS V14.01,2013-10-05 14:58:00,
2013-10-05 11:03:00,67.9,63.9,30.13,North,359,0.0,229.5,87,0.01,,,0.00,VWS V14.01,2013-10-05 15:03:00,
2013-10-05 11:08:00,68.1,64.1,30.13,North,359,0.0,229.5,87,0.01,,,0.00,VWS V14.01,2013-10-05 15:08:00,
2013-10-05 11:14:00,68.3,64.1,30.13,North,359,0.0,229.5,86,0.01,,,0.00,VWS V14.01,2013-10-05 15:14:00,
2013-10-05 11:20:00,68.4,63.9,30.13,North,359,0.0,229.5,86,0.01,,,0.00,VWS V14.01,2013-10-05 15:20:00,
2013-10-05 11:26:00,68.4,63.9,30.13,North,359,0.0,229.5,86,0.01,,,0.00,VWS V14.01,2013-10-05 15:26:00,
2013-10-05 11:31:00,68.6,64.0,30.13,North,359,0.0,229.5,85,0.01,,,0.00,VWS V14.01,2013-10-05 15:31:00,
2013-10-05 11:36:00,68.7,64.0,30.13,North,359,0.0,229.5,85,0.01,,,0.00,VWS V14.01,2013-10-05 15:36:00,
2013-10-05 11:41:00,68.9,64.0,30.13,North,359,0.0,229.5,84,0.01,,,0.00,VWS V14.01,2013-10-05 15:41:00,
2013-10-05 11:47:00,69.0,64.0,30.13,North,359,0.0,229.5,84,0.01,,,0.00,VWS V14.01,2013-10-05 15:47:00,
2013-10-05 11:52:00,69.0,64.0,30.13,North,359,0.0,229.5,84,0.01,,,0.00,VWS V14.01,2013-10-05 15:52:00,
2013-10-05 11:58:00,69.4,64.3,30.13,North,359,0.0,229.5,84,0.01,,,0.00,VWS V14.01,2013-10-05 15:58:00,
2013-10-05 12:03:00,69.5,64.2,30.13,North,359,0.0,229.5,83,0.01,,,0.00,VWS V14.01,2013-10-05 16:03:00,
2013-10-05 12:09:00,69.9,64.4,30.13,North,359,0.0,229.5,83,0.01,,,0.00,VWS V14.01,2013-10-05 16:09:00,
2013-10-05 12:14:00,70.0,64.3,30.13,North,359,0.0,229.5,82,0.01,,,0.00,VWS V14.01,2013-10-05 16:14:00,
2013-10-05 12:19:00,70.0,64.2,30.12,North,359,0.0,229.5,82,0.01,,,0.00,VWS V14.01,2013-10-05 16:19:00,
2013-10-05 12:24:00,70.2,64.3,30.12,North,359,0.0,229.5,82,0.01,,,0.00,VWS V14.01,2013-10-05 16:24:00,
2013-10-05 12:30:00,70.4,64.4,30.12,North,359,0.0,229.5,81,0.01,,,0.00,VWS V14.01,2013-10-05 16:30:00,
2013-10-05 12:35:00,70.5,64.3,30.12,North,359,0.0,229.5,81,0.01,,,0.00,VWS V14.01,2013-10-05 16:35:00,
2013-10-05 12:40:00,70.7,64.4,30.12,North,359,0.0,229.5,81,0.01,,,0.00,VWS V14.01,2013-10-05 16:40:00,
2013-10-05 12:45:00,71.1,64.6,30.12,North,359,0.0,229.5,80,0.01,,,0.00,VWS V14.01,2013-10-05 16:45:00,
2013-10-05 12:50:00,71.5,64.9,30.12,North,359,0.0,229.5,80,0.01,,,0.00,VWS V14.01,2013-10-05 16:50:00,
2013-10-05 12:56:00,72.1,64.9,30.11,North,359,0.0,229.5,78,0.01,,,0.00,VWS V14.01,2013-10-05 16:56:00,
2013-10-05 13:01:00,72.3,64.8,30.10,North,359,0.0,229.5,77,0.01,,,0.00,VWS V14.01,2013-10-05 17:01:00,
2013-10-05 13:06:00,72.9,64.8,30.10,North,359,0.0,229.5,76,0.01,,,0.00,VWS V14.01,2013-10-05 17:06:00,
2013-10-05 13:11:00,73.2,65.2,30.10,North,359,0.0,229.5,76,0.01,,,0.00,VWS V14.01,2013-10-05 17:11:00,
2013-10-05 13:16:00,73.3,64.9,30.10,North,359,0.0,229.5,75,0.01,,,0.00,VWS V14.01,2013-10-05 17:16:00,
2013-10-05 13:22:00,73.4,64.8,30.10,North,359,0.0,229.5,75,0.01,,,0.00,VWS V14.01,2013-10-05 17:22:00,
2013-10-05 13:27:00,73.5,64.9,30.09,North,359,0.0,229.5,74,0.01,,,0.00,VWS V14.01,2013-10-05 17:27:00,
2013-10-05 13:32:00,73.8,65.0,30.09,North,359,0.0,229.5,74,0.01,,,0.00,VWS V14.01,2013-10-05 17:32:00,
2013-10-05 13:37:00,74.1,64.8,30.09,North,359,0.0,229.5,73,0.01,,,0.00,VWS V14.01,2013-10-05 17:37:00,
2013-10-05 13:42:00,74.4,64.9,30.09,North,359,0.0,229.5,72,0.01,,,0.00,VWS V14.01,2013-10-05 17:42:00,
2013-10-05 13:48:00,74.6,64.6,30.09,North,359,0.0,229.5,71,0.01,,,0.00,VWS V14.01,2013-10-05 17:48:00,
2013-10-05 13:53:00,74.9,64.8,30.09,North,359,0.0,229.5,71,0.01,,,0.00,VWS V14.01,2013-10-05 17:53:00,
2013-10-05 13:58:00,75.6,64.9,30.08,North,359,0.0,229.5,70,0.01,,,0.00,VWS V14.01,2013-10-05 17:58:00,
2013-10-05 14:03:00,76.2,64.5,30.08,North,359,0.0,229.5,67,0.01,,,0.00,VWS V14.01,2013-10-05 18:03:00,
2013-10-05 14:09:00,76.3,64.5,30.07,North,359,0.0,229.5,67,0.01,,,0.00,VWS V14.01,2013-10-05 18:09:00,
2013-10-05 14:14:00,76.3,64.0,30.07,North,359,0.0,229.5,66,0.01,,,0.00,VWS V14.01,2013-10-05 18:14:00,
2013-10-05 14:19:00,76.6,64.2,30.08,North,359,0.0,229.5,66,0.01,,,0.00,VWS V14.01,2013-10-05 18:19:00,
2013-10-05 14:24:00,76.7,64.1,30.07,North,359,0.0,229.5,65,0.01,,,0.00,VWS V14.01,2013-10-05 18:24:00,
2013-10-05 14:29:00,77.0,64.2,30.08,North,359,0.0,229.5,65,0.01,,,0.00,VWS V14.01,2013-10-05 18:29:00,
2013-10-05 14:35:00,77.3,64.3,30.08,North,359,0.0,229.5,64,0.01,,,0.00,VWS V14.01,2013-10-05 18:35:00,
2013-10-05 14:40:00,77.7,64.2,30.08,North,359,0.0,229.5,63,0.01,,,0.00,VWS V14.01,2013-10-05 18:40:00,
2013-10-05 14:45:00,77.9,64.4,30.08,North,359,0.0,229.5,63,0.01,,,0.00,VWS V14.01,2013-10-05 18:45:00,
2013-10-05 14:50:00,77.8,64.1,30.08,North,359,0.0,229.5,63,0.01,,,0.00,VWS V14.01,2013-10-05 18:50:00,
2013-10-05 14:55:00,78.0,63.8,30.08,North,359,0.0,229.5,62,0.01,,,0.00,VWS V14.01,2013-10-05 18:55:00,
2013-10-05 15:01:00,78.2,63.6,30.08,North,359,0.0,229.5,61,0.01,,,0.00,VWS V14.01,2013-10-05 19:01:00,
2013-10-05 15:06:00,77.9,63.3,30.08,North,359,0.0,229.5,61,0.01,,,0.00,VWS V14.01,2013-10-05 19:06:00,
2013-10-05 15:11:00,77.7,63.3,30.08,North,359,0.0,229.5,61,0.01,,,0.00,VWS V14.01,2013-10-05 19:11:00,
2013-10-05 15:16:00,77.2,63.8,30.08,North,359,0.0,229.5,63,0.01,,,0.00,VWS V14.01,2013-10-05 19:16:00,
2013-10-05 15:21:00,77.4,63.8,30.08,North,359,0.0,229.5,63,0.01,,,0.00,VWS V14.01,2013-10-05 19:21:00,
2013-10-05 15:27:00,77.5,63.6,30.08,North,359,0.0,229.5,62,0.01,,,0.00,VWS V14.01,2013-10-05 19:27:00,
2013-10-05 15:32:00,77.4,63.5,30.07,North,359,0.0,229.5,62,0.01,,,0.00,VWS V14.01,2013-10-05 19:32:00,
2013-10-05 15:37:00,77.5,63.3,30.07,North,359,0.0,229.5,62,0.01,,,0.00,VWS V14.01,2013-10-05 19:37:00,
2013-10-05 15:42:00,77.8,64.1,30.08,North,359,0.0,229.5,63,0.01,,,0.00,VWS V14.01,2013-10-05 19:42:00,
2013-10-05 15:47:00,78.0,64.1,30.08,North,359,0.0,229.5,62,0.01,,,0.00,VWS V14.01,2013-10-05 19:47:00,
2013-10-05 15:53:00,78.1,64.2,30.08,North,359,0.0,229.5,62,0.01,,,0.00,VWS V14.01,2013-10-05 19:53:00,
2013-10-05 15:58:00,78.0,64.0,30.08,North,359,0.0,229.5,62,0.01,,,0.00,VWS V14.01,2013-10-05 19:58:00,
2013-10-05 16:03:00,78.1,64.0,30.08,North,359,0.0,229.5,62,0.01,,,0.00,VWS V14.01,2013-10-05 20:03:00,
2013-10-05 16:08:00,78.1,63.7,30.08,North,359,0.0,229.5,61,0.01,,,0.00,VWS V14.01,2013-10-05 20:08:00,
2013-10-05 16:13:00,77.8,63.6,30.08,North,359,0.0,229.5,62,0.01,,,0.00,VWS V14.01,2013-10-05 20:13:00,
2013-10-05 16:19:00,77.8,63.7,30.08,North,359,0.0,229.5,62,0.01,,,0.00,VWS V14.01,2013-10-05 20:19:00,
2013-10-05 16:24:00,77.4,63.6,30.07,North,359,0.0,229.5,62,0.01,,,0.00,VWS V14.01,2013-10-05 20:24:00,
2013-10-05 16:29:00,76.8,63.3,30.07,North,359,0.0,229.5,63,0.01,,,0.00,VWS V14.01,2013-10-05 20:29:00,
2013-10-05 16:34:00,76.8,63.8,30.07,North,359,0.0,229.5,64,0.01,,,0.00,VWS V14.01,2013-10-05 20:34:00,
2013-10-05 16:39:00,76.4,63.8,30.07,North,359,0.0,229.5,65,0.01,,,0.00,VWS V14.01,2013-10-05 20:39:00,
2013-10-05 16:45:00,76.2,63.9,30.07,North,359,0.0,229.5,66,0.01,,,0.00,VWS V14.01,2013-10-05 20:45:00,
2013-10-05 16:50:00,76.0,64.3,30.08,North,359,0.0,229.5,67,0.01,,,0.00,VWS V14.01,2013-10-05 20:50:00,
2013-10-05 16:55:00,75.7,64.2,30.08,North,359,0.0,229.5,67,0.01,,,0.00,VWS V14.01,2013-10-05 20:55:00,
2013-10-05 17:00:00,75.5,64.2,30.08,North,359,0.0,229.5,68,0.01,,,0.00,VWS V14.01,2013-10-05 21:00:00,
2013-10-05 17:05:00,75.5,64.5,30.08,North,359,0.0,229.5,69,0.01,,,0.00,VWS V14.01,2013-10-05 21:05:00,
2013-10-05 17:10:00,75.4,64.5,30.08,North,359,0.0,229.5,69,0.01,,,0.00,VWS V14.01,2013-10-05 21:10:00,
2013-10-05 17:16:00,75.2,64.4,30.08,North,359,0.0,229.5,69,0.01,,,0.00,VWS V14.01,2013-10-05 21:16:00,
2013-10-05 17:21:00,75.2,64.7,30.08,North,359,0.0,229.5,70,0.01,,,0.00,VWS V14.01,2013-10-05 21:21:00,
2013-10-05 17:26:00,75.0,64.6,30.08,North,359,0.0,229.5,70,0.01,,,0.00,VWS V14.01,2013-10-05 21:26:00,
2013-10-05 17:31:00,74.9,64.6,30.08,North,359,0.0,229.5,70,0.01,,,0.00,VWS V14.01,2013-10-05 21:31:00,
2013-10-05 17:37:00,74.8,64.6,30.08,North,359,0.0,229.5,70,0.01,,,0.00,VWS V14.01,2013-10-05 21:37:00,
2013-10-05 17:42:00,74.6,64.5,30.07,North,359,0.0,229.5,71,0.01,,,0.00,VWS V14.01,2013-10-05 21:42:00,
2013-10-05 17:47:00,74.4,64.4,30.07,North,359,0.0,229.5,71,0.01,,,0.00,VWS V14.01,2013-10-05 21:47:00,
2013-10-05 17:52:00,74.1,64.3,30.07,North,359,0.0,229.5,71,0.01,,,0.00,VWS V14.01,2013-10-05 21:52:00,
2013-10-05 17:58:00,73.8,64.2,30.07,North,359,0.0,229.5,72,0.01,,,0.00,VWS V14.01,2013-10-05 21:58:00,
2013-10-05 18:03:00,73.6,64.2,30.07,North,359,0.0,229.5,72,0.01,,,0.00,VWS V14.01,2013-10-05 22:03:00,
2013-10-05 18:09:00,73.3,64.6,30.08,North,359,0.0,229.5,74,0.01,,,0.00,VWS V14.01,2013-10-05 22:09:00,
2013-10-05 18:15:00,73.0,64.6,30.08,North,359,0.0,229.5,75,0.01,,,0.00,VWS V14.01,2013-10-05 22:15:00,
2013-10-05 18:20:00,72.7,64.5,30.08,North,359,0.0,229.5,76,0.01,,,0.00,VWS V14.01,2013-10-05 22:20:00,
2013-10-05 18:26:00,72.5,64.7,30.08,North,359,0.0,229.5,76,0.01,,,0.00,VWS V14.01,2013-10-05 22:26:00,
2013-10-05 18:31:00,72.2,64.7,30.08,North,359,0.0,229.5,77,0.01,,,0.00,VWS V14.01,2013-10-05 22:31:00,
2013-10-05 18:37:00,71.9,64.8,30.08,North,359,0.0,229.5,78,0.01,,,0.00,VWS V14.01,2013-10-05 22:37:00,
2013-10-05 18:42:00,71.7,64.8,30.08,North,359,0.0,229.5,79,0.01,,,0.00,VWS V14.01,2013-10-05 22:42:00,
2013-10-05 18:48:00,71.6,65.0,30.08,North,359,0.0,229.5,80,0.01,,,0.00,VWS V14.01,2013-10-05 22:48:00,
2013-10-05 18:53:00,71.5,65.1,30.08,North,359,0.0,229.5,80,0.01,,,0.00,VWS V14.01,2013-10-05 22:53:00,
2013-10-05 18:59:00,71.5,65.0,30.08,North,359,0.0,229.5,80,0.01,,,0.00,VWS V14.01,2013-10-05 22:59:00,
2013-10-05 19:04:00,71.5,65.1,30.09,North,359,0.0,229.5,80,0.01,,,0.00,VWS V14.01,2013-10-05 23:04:00,
2013-10-05 19:10:00,71.3,64.9,30.09,North,359,0.0,229.5,80,0.01,,,0.00,VWS V14.01,2013-10-05 23:10:00,
2013-10-05 19:15:00,71.2,65.0,30.09,North,359,0.0,229.5,81,0.01,,,0.00,VWS V14.01,2013-10-05 23:15:00,
2013-10-05 19:21:00,70.9,65.2,30.09,North,359,0.0,229.5,82,0.01,,,0.00,VWS V14.01,2013-10-05 23:21:00,
2013-10-05 19:27:00,70.7,65.1,30.09,North,359,0.0,229.5,82,0.01,,,0.00,VWS V14.01,2013-10-05 23:27:00,
2013-10-05 19:33:00,70.4,65.4,30.09,North,359,0.0,229.5,84,0.01,,,0.00,VWS V14.01,2013-10-05 23:33:00,
2013-10-05 19:38:00,70.2,65.6,30.10,North,359,0.0,229.5,85,0.01,,,0.00,VWS V14.01,2013-10-05 23:38:00,
2013-10-05 19:44:00,70.1,65.2,30.10,North,359,0.0,229.5,84,0.01,,,0.00,VWS V14.01,2013-10-05 23:44:00,
2013-10-05 19:49:00,70.1,65.1,30.10,North,359,0.0,229.5,84,0.01,,,0.00,VWS V14.01,2013-10-05 23:49:00,
2013-10-05 19:55:00,70.0,64.9,30.09,North,359,0.0,229.5,84,0.01,,,0.00,VWS V14.01,2013-10-05 23:55:00,
2013-10-05 20:00:00,69.9,64.8,30.09,North,359,0.0,229.5,84,0.01,,,0.00,VWS V14.01,2013-10-06 00:00:00,
2013-10-05 20:05:00,69.9,64.8,30.09,North,359,0.0,229.5,84,0.01,,,0.00,VWS V14.01,2013-10-06 00:05:00,
2013-10-05 20:12:00,69.8,65.0,30.10,North,359,0.0,229.5,85,0.01,,,0.00,VWS V14.01,2013-10-06 00:12:00,
2013-10-05 20:18:00,69.4,64.9,30.10,North,359,0.0,229.5,86,0.01,,,0.00,VWS V14.01,2013-10-06 00:18:00,
2013-10-05 20:23:00,69.4,64.8,30.10,North,359,0.0,229.5,85,0.01,,,0.00,VWS V14.01,2013-10-06 00:23:00,
2013-10-05 20:29:00,69.4,64.8,30.10,North,359,0.0,229.5,85,0.01,,,0.00,VWS V14.01,2013-10-06 00:29:00,
2013-10-05 20:34:00,69.3,64.7,30.10,North,359,0.0,229.5,85,0.01,,,0.00,VWS V14.01,2013-10-06 00:34:00,
2013-10-05 20:40:00,69.3,64.7,30.10,North,359,0.0,229.5,85,0.01,,,0.00,VWS V14.01,2013-10-06 00:40:00,
2013-10-05 20:46:00,69.3,64.8,30.10,North,359,0.0,229.5,86,0.01,,,0.00,VWS V14.01,2013-10-06 00:46:00,
2013-10-05 20:52:00,69.1,64.6,30.10,North,359,0.0,229.5,86,0.01,,,0.00,VWS V14.01,2013-10-06 00:52:00,
2013-10-05 20:57:00,69.1,64.6,30.11,North,359,0.0,229.5,86,0.01,,,0.00,VWS V14.01,2013-10-06 00:57:00,
2013-10-05 21:02:00,69.0,64.5,30.10,North,359,0.0,229.5,86,0.01,,,0.00,VWS V14.01,2013-10-06 01:02:00,
2013-10-05 21:08:00,68.9,64.5,30.10,North,359,0.0,229.5,86,0.01,,,0.00,VWS V14.01,2013-10-06 01:08:00,
2013-10-05 21:13:00,68.7,64.5,30.11,North,359,0.0,229.5,86,0.01,,,0.00,VWS V14.01,2013-10-06 01:13:00,
2013-10-05 21:19:00,68.5,64.4,30.11,North,359,0.0,229.5,87,0.01,,,0.00,VWS V14.01,2013-10-06 01:19:00,
2013-10-05 21:24:00,68.5,64.6,30.11,North,359,0.0,229.5,87,0.01,,,0.00,VWS V14.01,2013-10-06 01:24:00,
2013-10-05 21:30:00,68.4,64.5,30.12,North,359,0.0,229.5,87,0.01,,,0.00,VWS V14.01,2013-10-06 01:30:00,
2013-10-05 21:35:00,68.3,64.5,30.11,North,359,0.0,229.5,88,0.01,,,0.00,VWS V14.01,2013-10-06 01:35:00,
2013-10-05 21:41:00,68.3,64.6,30.11,North,359,0.0,229.5,88,0.01,,,0.00,VWS V14.01,2013-10-06 01:41:00,
2013-10-05 21:48:00,68.2,64.6,30.11,North,359,0.0,229.5,88,0.01,,,0.00,VWS V14.01,2013-10-06 01:48:00,
2013-10-05 21:53:00,68.2,64.6,30.11,North,359,0.0,229.5,88,0.01,,,0.00,VWS V14.01,2013-10-06 01:53:00,
2013-10-05 21:58:00,68.1,64.5,30.12,North,359,0.0,229.5,88,0.01,,,0.00,VWS V14.01,2013-10-06 01:58:00,
2013-10-05 22:04:00,68.1,64.6,30.12,North,359,0.0,229.5,88,0.01,,,0.00,VWS V14.01,2013-10-06 02:04:00,
2013-10-05 22:10:00,67.9,64.5,30.12,North,359,0.0,229.5,89,0.01,,,0.00,VWS V14.01,2013-10-06 02:10:00,
2013-10-05 22:15:00,67.9,64.6,30.12,North,359,0.0,229.5,89,0.01,,,0.00,VWS V14.01,2013-10-06 02:15:00,
2013-10-05 22:21:00,67.9,64.5,30.12,North,359,0.0,229.5,89,0.01,,,0.00,VWS V14.01,2013-10-06 02:21:00,
2013-10-05 22:26:00,67.9,64.4,30.12,North,359,0.0,229.5,89,0.01,,,0.00,VWS V14.01,2013-10-06 02:26:00,
2013-10-05 22:32:00,68.0,64.5,30.12,North,359,0.0,229.5,89,0.01,,,0.00,VWS V14.01,2013-10-06 02:32:00,
2013-10-05 22:37:00,67.9,64.4,30.12,North,359,0.0,229.5,89,0.01,,,0.00,VWS V14.01,2013-10-06 02:37:00,
2013-10-05 22:43:00,67.9,64.5,30.12,North,359,0.0,229.5,89,0.01,,,0.00,VWS V14.01,2013-10-06 02:43:00,
2013-10-05 22:48:00,67.9,64.6,30.12,North,359,0.0,229.5,89,0.01,,,0.00,VWS V14.01,2013-10-06 02:48:00,
2013-10-05 22:54:00,67.9,64.6,30.12,North,359,0.0,229.5,89,0.01,,,0.00,VWS V14.01,2013-10-06 02:54:00,
2013-10-05 22:59:00,67.8,64.7,30.12,North,359,0.0,229.5,90,0.01,,,0.00,VWS V14.01,2013-10-06 02:59:00,
2013-10-05 23:05:00,67.7,64.7,30.12,North,359,0.0,229.5,90,0.01,,,0.00,VWS V14.01,2013-10-06 03:05:00,
2013-10-05 23:10:00,67.7,64.7,30.12,North,359,0.0,229.5,90,0.01,,,0.00,VWS V14.01,2013-10-06 03:10:00,
2013-10-05 23:16:00,67.7,64.7,30.12,North,359,0.0,229.5,90,0.01,,,0.00,VWS V14.01,2013-10-06 03:16:00,
2013-10-05 23:22:00,67.7,64.8,30.12,North,359,0.0,229.5,90,0.01,,,0.00,VWS V14.01,2013-10-06 03:22:00,
2013-10-05 23:27:00,67.7,64.7,30.12,North,359,0.0,229.5,90,0.01,,,0.00,VWS V14.01,2013-10-06 03:27:00,
2013-10-05 23:33:00,67.7,64.7,30.12,North,359,0.0,229.5,90,0.01,,,0.00,VWS V14.01,2013-10-06 03:33:00,
2013-10-05 23:39:00,67.7,64.7,30.12,North,359,0.0,229.5,90,0.01,,,0.00,VWS V14.01,2013-10-06 03:39:00,
2013-10-05 23:44:00,67.7,64.7,30.12,North,359,0.0,229.5,90,0.01,,,0.00,VWS V14.01,2013-10-06 03:44:00,
2013-10-05 23:50:00,67.7,64.8,30.11,North,359,0.0,229.5,90,0.01,,,0.00,VWS V14.01,2013-10-06 03:50:00,
2013-10-05 23:55:00,67.6,64.7,30.11,North,359,0.0,229.5,90,0.01,,,0.00,VWS V14.01,2013-10-06 03:55:00,